Time;durP1;ratioP1;P1;durP2;ratioP2;P2;SDS_P1;SDS_P2;PMS_P1;PMS_P2;Temp;Humidity;BMP_temperature;BMP_pressure;BME280_temperature;BME280_humidity;BME280_pressure;Samples;Min_cycle;Max_cycle;Signal;HPM_P1;HPM_P2
2023/06/18 00:01:06;;;;;;;7.95;5.47;;;;;;;20.03;55.91;101204.50;5044217;28;20033;-78
2023/06/18 00:03:32;;;;;;;7.40;5.18;;;;;;;20.00;57.10;101209.97;5052357;28;20041;-77
2023/06/18 00:05:59;;;;;;;7.07;5.65;;;;;;;19.96;57.93;101200.56;5048209;28;20036;-78
2023/06/18 00:08:24;;;;;;;7.10;5.22;;;;;;;19.93;58.49;101200.72;5045981;28;20025;-78
2023/06/18 00:10:49;;;;;;;8.45;5.80;;;;;;;19.92;57.72;101199.03;5040407;28;20488;-77
2023/06/18 00:13:15;;;;;;;6.80;5.43;;;;;;;19.89;57.49;101199.22;5043045;28;20029;-78
2023/06/18 00:15:40;;;;;;;7.25;5.47;;;;;;;19.84;58.78;101200.28;5045808;28;20025;-78
2023/06/18 00:18:06;;;;;;;7.38;5.47;;;;;;;19.83;59.17;101197.75;5047953;28;20092;-78
2023/06/18 00:20:34;;;;;;;6.80;5.85;;;;;;;19.78;56.44;101192.75;5052863;28;20536;-78
2023/06/18 00:23:00;;;;;;;8.48;5.80;;;;;;;19.74;57.78;101199.16;5047426;28;20735;-78
2023/06/18 00:25:26;;;;;;;7.05;5.60;;;;;;;19.71;57.10;101201.97;5052279;28;20025;-80
2023/06/18 00:27:51;;;;;;;5.95;5.10;;;;;;;19.68;56.97;101188.94;5047622;28;20035;-77
2023/06/18 00:30:17;;;;;;;6.72;5.55;;;;;;;19.66;57.15;101193.47;5048433;28;20021;-78
2023/06/18 00:32:44;;;;;;;8.95;5.95;;;;;;;19.65;57.41;101197.03;5047608;28;20025;-77
2023/06/18 00:35:10;;;;;;;7.47;5.78;;;;;;;19.60;59.14;101199.94;5047015;28;20029;-78
2023/06/18 00:37:36;;;;;;;6.28;5.45;;;;;;;19.58;55.78;101190.44;5051134;28;20100;-78
2023/06/18 00:40:02;;;;;;;6.93;6.07;;;;;;;19.51;58.13;101195.22;5050831;28;20048;-78
2023/06/18 00:42:28;;;;;;;6.40;5.28;;;;;;;19.46;61.73;101187.59;5053240;28;20112;-78
2023/06/18 00:44:54;;;;;;;6.88;5.53;;;;;;;19.42;60.07;101180.78;5034166;28;20020;-78
2023/06/18 00:47:20;;;;;;;7.10;5.95;;;;;;;19.40;60.24;101187.91;5052515;28;20455;-78
2023/06/18 00:49:47;;;;;;;9.18;5.75;;;;;;;19.35;60.65;101185.56;5052716;28;20031;-78
2023/06/18 00:52:13;;;;;;;8.07;5.90;;;;;;;19.31;59.36;101173.47;5052179;28;20047;-78
2023/06/18 00:54:40;;;;;;;6.72;5.70;;;;;;;19.29;58.60;101177.16;5053001;28;20013;-78
2023/06/18 00:57:08;;;;;;;7.05;5.45;;;;;;;19.26;62.08;101179.03;5052124;28;20052;-78
2023/06/18 00:59:34;;;;;;;7.28;6.10;;;;;;;19.23;60.42;101175.69;5050972;28;20487;-78
2023/06/18 01:02:00;;;;;;;7.78;6.13;;;;;;;19.21;62.97;101173.16;5048211;28;20029;-78
2023/06/18 01:04:32;;;;;;;8.38;6.30;;;;;;;19.17;62.20;101170.78;5050897;28;20035;-78
2023/06/18 01:06:59;;;;;;;7.18;5.70;;;;;;;19.13;61.71;101166.59;5050527;28;20116;-78
2023/06/18 01:09:26;;;;;;;6.65;5.93;;;;;;;19.10;62.28;101170.28;5052570;28;20106;-78
2023/06/18 01:11:52;;;;;;;7.20;6.28;;;;;;;19.06;60.53;101168.75;5051289;28;20021;-78
2023/06/18 01:14:22;;;;;;;7.50;6.20;;;;;;;19.01;60.71;101170.78;5051404;28;20065;-78
2023/06/18 01:16:49;;;;;;;7.53;6.57;;;;;;;18.96;60.15;101179.78;5052102;28;20025;-78
2023/06/18 01:19:27;;;;;;;7.07;6.20;;;;;;;18.94;59.45;101179.06;5050157;28;20017;-78
2023/06/18 01:21:58;;;;;;;8.18;6.28;;;;;;;18.90;61.08;101164.31;5051751;28;20120;-78
2023/06/18 01:24:29;;;;;;;7.53;5.93;;;;;;;18.88;63.02;101171.44;5050915;28;20507;-78
2023/06/18 01:26:56;;;;;;;8.85;6.53;;;;;;;18.83;61.46;101168.19;5051716;28;20059;-78
2023/06/18 01:29:24;;;;;;;8.57;6.82;;;;;;;18.79;61.75;101164.03;5052503;28;20016;-78
2023/06/18 01:31:52;;;;;;;7.88;6.75;;;;;;;18.75;62.11;101171.25;5033529;28;20472;-78
2023/06/18 01:34:17;;;;;;;12.07;7.05;;;;;;;18.72;62.08;101162.69;5050661;28;20031;-77
2023/06/18 01:36:49;;;;;;;8.48;7.10;;;;;;;18.69;62.68;101171.63;5050565;28;20107;-78
2023/06/18 01:39:33;;;;;;;10.73;7.10;;;;;;;18.67;63.28;101170.84;5047017;28;20037;-78
2023/06/18 01:42:07;;;;;;;8.48;6.95;;;;;;;18.63;62.78;101156.97;5044217;28;20103;-78
2023/06/18 01:44:35;;;;;;;8.52;6.90;;;;;;;18.61;61.22;101166.78;5042888;28;20029;-78
2023/06/18 01:47:00;;;;;;;7.80;6.88;;;;;;;18.58;63.83;101158.16;5042550;28;20032;-78
2023/06/18 01:49:27;;;;;;;9.18;7.13;;;;;;;18.54;62.88;101161.88;5041762;28;20370;-78
2023/06/18 01:51:53;;;;;;;8.88;7.20;;;;;;;18.51;63.45;101157.66;5043110;28;20025;-78
2023/06/18 01:54:21;;;;;;;8.60;7.35;;;;;;;18.47;60.98;101154.34;5043851;28;20138;-78
2023/06/18 01:56:46;;;;;;;9.23;7.10;;;;;;;18.45;60.58;101147.44;5044837;28;20514;-77
2023/06/18 01:59:12;;;;;;;9.27;7.35;;;;;;;18.43;61.87;101144.06;5045893;28;20051;-78
2023/06/18 02:01:40;;;;;;;8.35;7.40;;;;;;;18.38;62.96;101146.06;5045768;28;20044;-78
2023/06/18 02:04:06;;;;;;;9.57;7.57;;;;;;;18.34;63.45;101151.50;5044648;28;20080;-78
2023/06/18 02:06:31;;;;;;;8.85;7.70;;;;;;;18.29;63.64;101142.16;5043663;28;20049;-78
2023/06/18 02:08:56;;;;;;;10.25;7.70;;;;;;;18.27;60.94;101142.25;5045439;28;20028;-77
2023/06/18 02:11:22;;;;;;;8.77;7.30;;;;;;;18.21;62.94;101139.94;5041086;28;20388;-77
2023/06/18 02:13:47;;;;;;;11.82;7.68;;;;;;;18.16;63.00;101137.56;5026745;28;20476;-78
2023/06/18 02:16:12;;;;;;;10.43;7.72;;;;;;;18.15;63.35;101140.25;5044815;28;20029;-77
2023/06/18 02:18:38;;;;;;;9.38;8.13;;;;;;;18.15;64.64;101137.63;5045256;28;20033;-78
2023/06/18 02:21:04;;;;;;;10.88;7.55;;;;;;;18.14;64.92;101133.28;5044642;28;20399;-77
2023/06/18 02:23:29;;;;;;;9.73;7.72;;;;;;;18.12;63.39;101127.25;5043275;28;20071;-77
2023/06/18 02:25:56;;;;;;;9.32;7.88;;;;;;;18.12;63.18;101129.88;5044456;28;20036;-78
2023/06/18 02:28:22;;;;;;;10.80;7.95;;;;;;;18.11;63.62;101133.44;5026978;28;20476;-78
2023/06/18 02:30:47;;;;;;;10.25;7.93;;;;;;;18.11;63.11;101133.44;5045038;28;20036;-77
2023/06/18 02:33:12;;;;;;;9.07;7.78;;;;;;;18.11;63.57;101136.06;5044803;28;20020;-78
2023/06/18 02:35:38;;;;;;;9.52;7.57;;;;;;;18.10;63.76;101129.13;5048138;28;20025;-78
2023/06/18 02:38:03;;;;;;;10.65;7.95;;;;;;;18.08;64.47;101133.63;5048600;28;20037;-78
2023/06/18 02:40:28;;;;;;;10.15;8.10;;;;;;;18.08;63.04;101133.63;5048788;28;20034;-78
2023/06/18 02:42:56;;;;;;;9.30;7.78;;;;;;;18.05;62.81;101129.34;5054709;28;20029;-78
2023/06/18 02:45:28;;;;;;;10.35;7.78;;;;;;;18.04;62.85;101128.50;5034630;28;20029;-78
2023/06/18 02:47:54;;;;;;;11.68;7.72;;;;;;;18.01;60.94;101131.31;5052289;28;20118;-78
2023/06/18 02:50:20;;;;;;;11.38;8.18;;;;;;;17.99;61.40;101127.91;5051228;28;20072;-78
2023/06/18 02:52:46;;;;;;;10.70;7.88;;;;;;;17.97;61.06;101131.53;5047649;28;20033;-78
2023/06/18 02:55:12;;;;;;;10.98;8.07;;;;;;;17.96;63.02;101128.00;5047363;28;20017;-78
2023/06/18 02:57:39;;;;;;;11.48;8.65;;;;;;;17.93;62.86;101136.09;5052737;28;20021;-77
2023/06/18 03:00:09;;;;;;;9.43;8.00;;;;;;;17.93;63.18;101125.56;5054123;28;20028;-78
2023/06/18 03:02:35;;;;;;;11.95;8.00;;;;;;;17.93;63.79;101122.06;5035690;28;20464;-78
2023/06/18 03:05:01;;;;;;;11.10;8.50;;;;;;;17.91;64.61;101127.44;5053807;28;20385;-78
2023/06/18 03:07:27;;;;;;;9.68;7.85;;;;;;;17.85;62.88;101128.56;5054536;28;20059;-78
2023/06/18 03:09:52;;;;;;;10.50;8.45;;;;;;;17.80;63.31;101132.38;5055023;28;20116;-78
2023/06/18 03:12:17;;;;;;;10.45;7.88;;;;;;;17.77;64.29;101129.91;5053300;28;20163;-78
2023/06/18 03:14:42;;;;;;;12.40;8.75;;;;;;;17.71;62.98;101129.31;5054208;28;20478;-78
2023/06/18 03:17:08;;;;;;;10.55;7.93;;;;;;;17.68;65.32;101132.09;5054529;28;20040;-78
2023/06/18 03:19:33;;;;;;;9.05;7.63;;;;;;;17.67;65.75;101129.56;5053593;28;20383;-78
2023/06/18 03:21:59;;;;;;;9.57;7.93;;;;;;;17.64;66.35;101125.28;5054081;28;20075;-77
2023/06/18 03:24:24;;;;;;;9.30;7.90;;;;;;;17.61;66.06;101133.31;5051869;28;20031;-78
2023/06/18 03:26:51;;;;;;;10.75;8.20;;;;;;;17.55;65.11;101137.13;5054386;28;20104;-78
2023/06/18 03:29:16;;;;;;;9.23;7.88;;;;;;;17.48;66.39;101129.63;5054223;28;20025;-78
2023/06/18 03:31:42;;;;;;;10.85;8.20;;;;;;;17.47;66.42;101133.16;5054434;28;20059;-78
2023/06/18 03:34:08;;;;;;;8.73;7.68;;;;;;;17.44;66.28;101132.38;5054642;28;20104;-78
2023/06/18 03:36:39;;;;;;;10.10;8.20;;;;;;;17.43;67.00;101132.47;5051625;28;20043;-78
2023/06/18 03:39:05;;;;;;;10.60;8.25;;;;;;;17.41;66.85;101140.47;5054278;28;20404;-78
2023/06/18 03:41:31;;;;;;;12.20;8.50;;;;;;;17.39;66.34;101134.41;5053741;28;20063;-78
2023/06/18 03:43:56;;;;;;;10.63;8.73;;;;;;;17.40;66.37;101125.59;5035772;28;20048;-78
2023/06/18 03:46:22;;;;;;;12.00;8.45;;;;;;;17.41;66.23;101137.81;5052587;28;20055;-78
2023/06/18 03:48:47;;;;;;;13.48;8.52;;;;;;;17.40;65.65;101133.50;5053663;28;20086;-78
2023/06/18 03:51:12;;;;;;;10.52;8.63;;;;;;;17.38;65.89;101130.09;5051750;28;20021;-78
2023/06/18 03:53:37;;;;;;;11.15;8.77;;;;;;;17.37;67.68;101136.28;5052759;28;20048;-77
2023/06/18 03:56:04;;;;;;;11.82;8.57;;;;;;;17.37;67.34;101144.16;5053769;28;20020;-77
2023/06/18 03:58:29;;;;;;;16.73;10.02;;;;;;;17.36;67.53;101144.22;5051681;28;20029;-78
2023/06/18 04:00:55;;;;;;;12.57;9.13;;;;;;;17.35;67.78;101146.00;5053610;28;20020;-77
2023/06/18 04:03:21;;;;;;;12.30;8.85;;;;;;;17.36;67.09;101152.97;5047863;28;20041;-77
2023/06/18 04:05:46;;;;;;;11.55;9.35;;;;;;;17.37;67.52;101144.16;5048283;28;20032;-77
2023/06/18 04:08:11;;;;;;;12.38;9.13;;;;;;;17.36;66.34;101141.59;5050521;28;20540;-78
2023/06/18 04:10:36;;;;;;;11.65;9.43;;;;;;;17.37;67.35;101148.56;5048068;28;20029;-80
2023/06/18 04:13:02;;;;;;;13.85;9.25;;;;;;;17.38;65.93;101153.75;5046758;28;20468;-77
2023/06/18 04:15:27;;;;;;;12.05;8.82;;;;;;;17.40;66.05;101159.78;5050954;28;20028;-78
2023/06/18 04:17:53;;;;;;;11.88;9.65;;;;;;;17.43;66.22;101159.63;5052936;28;20488;-78
2023/06/18 04:20:18;;;;;;;11.68;9.32;;;;;;;17.44;67.54;101161.31;5049052;28;20029;-78
2023/06/18 04:22:43;;;;;;;13.00;9.15;;;;;;;17.45;68.62;101165.66;5053290;28;20139;-78
2023/06/18 04:25:09;;;;;;;10.73;8.65;;;;;;;17.47;68.64;101162.09;5053127;28;20025;-78
2023/06/18 04:27:34;;;;;;;11.95;9.75;;;;;;;17.48;68.29;101163.81;5034757;28;20369;-78
2023/06/18 04:30:00;;;;;;;12.50;9.55;;;;;;;17.51;68.27;101161.88;5051831;28;20033;-78
2023/06/18 04:32:25;;;;;;;10.98;9.38;;;;;;;17.53;68.33;101149.50;5052309;28;20476;-78
2023/06/18 04:34:50;;;;;;;11.82;8.77;;;;;;;17.55;66.04;101152.06;5052951;28;20024;-78
2023/06/18 04:37:16;;;;;;;12.57;9.23;;;;;;;17.54;67.34;101148.56;5052735;28;20051;-78
2023/06/18 04:39:41;;;;;;;13.07;9.60;;;;;;;17.55;67.23;101154.69;5052572;28;20024;-78
2023/06/18 04:42:06;;;;;;;10.90;9.43;;;;;;;17.56;66.25;101159.03;5052512;28;20483;-78
2023/06/18 04:44:32;;;;;;;12.35;9.52;;;;;;;17.56;66.77;101159.03;5050259;28;20460;-78
2023/06/18 04:46:57;;;;;;;12.98;10.50;;;;;;;17.58;65.96;101149.28;5051664;28;20024;-78
2023/06/18 04:49:22;;;;;;;12.50;9.88;;;;;;;17.59;65.94;101154.44;5052883;28;20479;-78
2023/06/18 04:51:47;;;;;;;12.93;10.23;;;;;;;17.61;67.04;101154.38;5051293;28;20037;-78
2023/06/18 04:54:13;;;;;;;14.73;9.70;;;;;;;17.62;67.02;101156.06;5051318;28;20029;-78
2023/06/18 04:56:38;;;;;;;11.85;9.95;;;;;;;17.64;67.34;101156.84;5052718;28;20071;-78
2023/06/18 04:59:03;;;;;;;12.95;10.10;;;;;;;17.67;69.03;101156.69;5052544;28;21557;-78
2023/06/18 05:01:29;;;;;;;19.92;11.65;;;;;;;17.69;68.31;101153.97;5048646;28;20500;-78
2023/06/18 05:03:54;;;;;;;18.98;11.48;;;;;;;17.72;69.53;101154.69;5052826;28;20041;-78
2023/06/18 05:06:19;;;;;;;15.43;10.55;;;;;;;17.73;67.10;101145.00;5052528;28;20464;-77
2023/06/18 05:08:46;;;;;;;16.83;11.13;;;;;;;17.74;67.39;101150.22;5048127;28;20044;-77
2023/06/18 05:11:12;;;;;;;15.52;10.80;;;;;;;17.78;64.95;101147.38;5029705;28;20029;-78
2023/06/18 05:13:37;;;;;;;12.80;10.07;;;;;;;17.81;64.65;101139.34;5051905;28;20043;-78
2023/06/18 05:16:03;;;;;;;13.65;10.48;;;;;;;17.84;63.38;101153.22;5050595;28;20321;-77
2023/06/18 05:18:28;;;;;;;14.20;10.52;;;;;;;17.89;63.81;101145.09;5050848;28;20490;-78
2023/06/18 05:20:53;;;;;;;13.70;10.50;;;;;;;17.93;64.51;101146.63;5034525;28;20035;-78
2023/06/18 05:23:18;;;;;;;12.45;10.07;;;;;;;17.95;63.43;101144.75;5052467;28;20024;-78
2023/06/18 05:25:44;;;;;;;14.82;10.43;;;;;;;18.00;63.89;101148.03;5051694;28;20502;-77
2023/06/18 05:28:09;;;;;;;12.27;10.65;;;;;;;18.04;63.51;101149.56;5049696;28;20029;-78
2023/06/18 05:30:34;;;;;;;12.60;10.77;;;;;;;18.10;63.03;101151.03;5051533;28;20021;-78
2023/06/18 05:32:59;;;;;;;12.93;11.30;;;;;;;18.16;61.85;101158.63;5050565;28;20021;-77
2023/06/18 05:35:25;;;;;;;14.93;11.30;;;;;;;18.24;62.65;101152.06;5051815;28;20093;-78
2023/06/18 05:37:50;;;;;;;16.02;11.30;;;;;;;18.31;62.37;101162.19;5050281;28;20040;-78
2023/06/18 05:40:15;;;;;;;14.10;10.98;;;;;;;18.37;62.37;101165.44;5050633;28;20044;-78
2023/06/18 05:42:42;;;;;;;13.68;11.38;;;;;;;18.43;62.70;101171.22;5048413;28;20020;-78
2023/06/18 05:45:07;;;;;;;14.35;11.68;;;;;;;18.53;62.85;101179.50;5051452;28;20382;-78
2023/06/18 05:47:33;;;;;;;15.55;12.18;;;;;;;18.60;64.44;101178.25;5051504;28;20104;-78
2023/06/18 05:49:58;;;;;;;17.85;11.60;;;;;;;18.69;62.26;101176.91;5051540;28;20028;-78
2023/06/18 05:52:23;;;;;;;15.55;11.82;;;;;;;18.78;63.80;101178.16;5049051;28;20530;-78
2023/06/18 05:54:48;;;;;;;12.70;11.15;;;;;;;18.89;60.34;101178.41;5051788;28;20027;-78
2023/06/18 05:57:14;;;;;;;13.90;11.15;;;;;;;19.00;60.78;101171.72;5051458;28;20130;-78
2023/06/18 05:59:39;;;;;;;13.88;11.38;;;;;;;19.09;59.92;101173.84;5051377;28;20032;-78
2023/06/18 06:02:05;;;;;;;14.40;10.95;;;;;;;19.20;58.88;101176.72;5050060;28;20075;-78
2023/06/18 06:04:30;;;;;;;14.88;11.43;;;;;;;19.28;58.85;101178.09;5049588;28;20480;-78
2023/06/18 06:06:56;;;;;;;14.45;11.00;;;;;;;19.34;59.69;101164.53;5051607;28;20486;-78
2023/06/18 06:09:21;;;;;;;15.45;11.18;;;;;;;19.40;59.41;101172.09;5049813;28;20383;-78
2023/06/18 06:11:47;;;;;;;17.42;11.48;;;;;;;19.46;59.25;101171.75;5046276;28;20056;-78
2023/06/18 06:14:13;;;;;;;14.07;11.20;;;;;;;19.50;59.18;101170.59;5046826;28;20041;-78
2023/06/18 06:16:38;;;;;;;12.63;9.88;;;;;;;19.54;56.94;101173.94;5048902;28;20099;-78
2023/06/18 06:19:04;;;;;;;14.50;10.98;;;;;;;19.56;58.27;101178.19;5041094;28;20115;-77
2023/06/18 06:21:30;;;;;;;14.15;11.23;;;;;;;19.61;58.59;101172.63;5043718;28;20484;-78
2023/06/18 06:23:56;;;;;;;12.93;10.85;;;;;;;19.66;57.52;101167.06;5048587;28;20024;-78
2023/06/18 06:26:22;;;;;;;15.95;11.00;;;;;;;19.73;59.57;101180.78;5047405;28;20024;-78
2023/06/18 06:28:47;;;;;;;14.23;11.43;;;;;;;19.78;60.43;101174.28;5050047;28;20021;-78
2023/06/18 06:31:12;;;;;;;14.48;11.07;;;;;;;19.87;58.36;101180.84;5050936;28;20029;-78
2023/06/18 06:33:37;;;;;;;14.10;11.70;;;;;;;19.95;57.23;101177.72;5051013;28;20017;-78
2023/06/18 06:36:03;;;;;;;14.52;11.07;;;;;;;20.02;58.70;101176.41;5050938;28;20013;-78
2023/06/18 06:38:28;;;;;;;13.77;11.18;;;;;;;20.11;55.54;101177.63;5049201;28;20083;-78
2023/06/18 06:40:53;;;;;;;15.20;10.93;;;;;;;20.20;56.64;101179.72;5044727;28;20104;-78
2023/06/18 06:43:19;;;;;;;14.50;11.07;;;;;;;20.31;55.21;101176.44;5047828;28;20166;-78
2023/06/18 06:45:44;;;;;;;14.90;10.60;;;;;;;20.41;53.02;101176.72;5049723;28;20029;-78
2023/06/18 06:48:10;;;;;;;12.40;10.55;;;;;;;20.50;55.09;101177.91;5050955;28;20032;-78
2023/06/18 06:50:35;;;;;;;13.73;11.43;;;;;;;20.59;53.51;101182.63;5050837;28;20029;-78
2023/06/18 06:53:00;;;;;;;14.15;10.65;;;;;;;20.64;52.90;101185.84;5049732;28;20433;-78
2023/06/18 06:55:26;;;;;;;12.70;10.52;;;;;;;20.70;53.38;101185.44;5051273;28;20078;-80
2023/06/18 06:57:51;;;;;;;13.98;10.40;;;;;;;20.76;58.61;101190.38;5050514;28;20020;-78
2023/06/18 07:00:16;;;;;;;11.68;9.75;;;;;;;20.78;54.30;101187.63;5048083;28;20024;-78
2023/06/18 07:02:42;;;;;;;12.68;10.05;;;;;;;20.80;52.81;101206.06;5045981;28;20049;-78
2023/06/18 07:05:08;;;;;;;11.98;9.50;;;;;;;20.79;52.02;101225.50;5049727;28;20446;-78
2023/06/18 07:07:35;;;;;;;12.10;9.18;;;;;;;20.76;50.59;101229.19;5048134;28;20044;-78
2023/06/18 07:10:01;;;;;;;12.25;9.20;;;;;;;20.73;51.82;101230.19;5017029;28;20014;-78
2023/06/18 07:12:26;;;;;;;13.55;10.10;;;;;;;20.71;50.33;101229.44;5050561;28;20083;-78
2023/06/18 07:14:51;;;;;;;12.23;10.20;;;;;;;20.70;50.99;101227.75;5050767;28;20033;-78
2023/06/18 07:17:16;;;;;;;14.27;10.63;;;;;;;20.70;50.17;101230.38;5049583;28;20189;-78
2023/06/18 07:19:42;;;;;;;13.57;10.25;;;;;;;20.72;52.07;101231.16;5048084;28;20063;-78
2023/06/18 07:22:07;;;;;;;14.48;10.48;;;;;;;20.74;51.28;101226.63;5053639;28;20115;-78
2023/06/18 07:24:32;;;;;;;12.80;10.52;;;;;;;20.80;51.92;101227.22;5049999;28;20017;-78
2023/06/18 07:26:57;;;;;;;12.57;9.88;;;;;;;20.86;52.98;101229.44;5054411;28;20027;-78
2023/06/18 07:29:23;;;;;;;14.00;10.52;;;;;;;20.93;52.37;101238.72;5054345;28;20025;-78
2023/06/18 07:31:48;;;;;;;12.18;9.32;;;;;;;20.99;49.97;101227.75;5053024;28;20029;-78
2023/06/18 07:34:16;;;;;;;10.88;8.82;;;;;;;21.06;49.63;101225.56;5052108;28;20074;-78
2023/06/18 07:36:41;;;;;;;11.15;8.65;;;;;;;21.13;50.54;101216.25;5052483;28;20021;-78
2023/06/18 07:39:06;;;;;;;12.82;8.38;;;;;;;21.20;50.14;101222.88;5047733;28;20074;-78
2023/06/18 07:41:32;;;;;;;11.52;7.93;;;;;;;21.26;48.16;101226.91;5054002;28;20035;-78
2023/06/18 07:43:57;;;;;;;11.45;7.50;;;;;;;21.31;49.86;101231.91;5052711;28;20056;-78
2023/06/18 07:46:23;;;;;;;8.45;6.78;;;;;;;21.34;48.56;101221.13;5052553;28;20072;-78
2023/06/18 07:48:48;;;;;;;8.35;6.20;;;;;;;21.37;47.75;101221.75;5054152;28;20159;-78
2023/06/18 07:51:14;;;;;;;8.98;6.47;;;;;;;21.41;47.47;101227.72;5049190;28;20032;-78
2023/06/18 07:53:40;;;;;;;9.13;6.13;;;;;;;21.47;47.96;101227.28;5053404;28;20025;-78
2023/06/18 07:56:05;;;;;;;8.10;6.30;;;;;;;21.54;48.34;101222.44;5052374;28;20036;-78
2023/06/18 07:58:30;;;;;;;8.52;5.80;;;;;;;21.61;48.21;101228.19;5053951;28;20036;-78
2023/06/18 08:00:56;;;;;;;8.10;5.07;;;;;;;21.66;46.29;101221.69;5052108;28;20039;-78
2023/06/18 08:03:21;;;;;;;6.60;5.28;;;;;;;21.75;46.96;101224.63;5049649;28;20052;-78
2023/06/18 08:05:46;;;;;;;6.63;4.90;;;;;;;21.81;45.31;101216.28;5049329;28;20025;-78
2023/06/18 08:08:13;;;;;;;6.00;4.90;;;;;;;21.88;47.00;101206.97;5050243;28;20082;-78
2023/06/18 08:10:39;;;;;;;7.30;5.28;;;;;;;21.96;46.97;101204.66;5051471;28;20361;-78
2023/06/18 08:13:05;;;;;;;7.60;5.38;;;;;;;22.07;48.03;101208.34;5051884;28;20502;-78
2023/06/18 08:15:30;;;;;;;8.52;5.38;;;;;;;22.16;47.11;101205.09;5050611;28;20349;-78
2023/06/18 08:17:55;;;;;;;8.55;5.00;;;;;;;22.24;45.21;101205.38;5048256;28;20025;-78
2023/06/18 08:20:21;;;;;;;6.47;5.57;;;;;;;22.33;45.25;101203.06;5045052;28;20446;-78
2023/06/18 08:22:46;;;;;;;9.95;5.75;;;;;;;22.39;45.10;101198.19;5049393;28;20020;-78
2023/06/18 08:25:11;;;;;;;6.50;5.40;;;;;;;22.47;45.32;101200.31;5049427;28;20086;-78
2023/06/18 08:27:36;;;;;;;5.75;4.85;;;;;;;22.54;46.29;101193.63;5048637;28;20132;-78
2023/06/18 08:30:04;;;;;;;6.18;5.30;;;;;;;22.59;45.44;101194.13;5050159;28;20471;-78
2023/06/18 08:32:29;;;;;;;9.45;5.47;;;;;;;22.66;45.18;101193.72;5039828;28;20086;-78
2023/06/18 08:34:54;;;;;;;9.68;5.45;;;;;;;22.71;45.25;101194.25;5047105;28;20024;-78
2023/06/18 08:37:20;;;;;;;7.35;5.30;;;;;;;22.76;46.34;101189.44;5047227;28;20021;-78
2023/06/18 08:39:45;;;;;;;5.68;5.05;;;;;;;22.80;44.92;101193.56;5045035;28;20418;-78
2023/06/18 08:42:17;;;;;;;6.47;5.18;;;;;;;22.84;45.99;101192.38;5048958;28;20056;-78
2023/06/18 08:44:45;;;;;;;7.65;5.32;;;;;;;22.88;45.85;101191.22;5045725;28;20078;-78
2023/06/18 08:47:10;;;;;;;7.90;5.55;;;;;;;22.94;45.37;101194.34;5047398;28;20033;-78
2023/06/18 08:49:40;;;;;;;6.85;5.45;;;;;;;22.97;45.23;101196.78;5047277;28;20023;-78
2023/06/18 08:52:08;;;;;;;8.48;5.80;;;;;;;22.98;45.11;101198.50;5046662;28;20712;-78
2023/06/18 08:54:36;;;;;;;7.63;5.60;;;;;;;22.99;44.45;101194.88;5050631;28;20076;-78
2023/06/18 08:57:13;;;;;;;8.63;6.25;;;;;;;22.99;44.63;101195.72;5050508;28;20384;-78
2023/06/18 08:59:40;;;;;;;7.70;5.82;;;;;;;22.98;44.28;101193.19;5049837;28;20036;-78
2023/06/18 09:02:06;;;;;;;6.95;5.70;;;;;;;22.98;44.90;101190.53;5049019;28;20059;-78
2023/06/18 09:04:34;;;;;;;7.78;5.68;;;;;;;22.99;45.26;101189.56;5029146;28;20037;-78
2023/06/18 09:07:00;;;;;;;7.30;6.00;;;;;;;22.99;45.19;101197.53;5041632;28;20022;-78
2023/06/18 09:09:27;;;;;;;9.18;5.75;;;;;;;23.01;45.59;101185.00;5047253;28;20025;-78
2023/06/18 09:11:52;;;;;;;8.63;5.50;;;;;;;23.02;45.45;101184.06;5049590;28;20066;-78
2023/06/18 09:14:18;;;;;;;9.48;5.18;;;;;;;23.01;46.53;101195.63;5044876;28;20021;-78
2023/06/18 09:16:43;;;;;;;6.97;5.03;;;;;;;23.00;46.48;101197.41;5042662;28;20032;-78
2023/06/18 09:19:09;;;;;;;7.32;5.50;;;;;;;23.00;46.55;101196.56;5042594;28;20038;-78
2023/06/18 09:21:40;;;;;;;7.47;5.57;;;;;;;22.97;47.32;101194.13;5041127;28;20437;-78
2023/06/18 09:24:06;;;;;;;;;;;;;;;23.01;46.99;101198.28;5044461;28;20043;-77
2023/06/18 09:26:34;;;;;;;5.88;4.97;;;;;;;22.96;46.94;101195.09;5045860;28;19917;-78
2023/06/18 09:29:10;;;;;;;6.57;4.88;;;;;;;22.95;47.01;101204.88;5025549;28;20357;-78
2023/06/18 09:31:43;;;;;;;11.05;5.13;;;;;;;22.94;47.04;101202.31;5043222;28;20025;-78
2023/06/18 09:34:18;;;;;;;6.38;5.10;;;;;;;22.97;47.34;101196.78;5022562;28;20103;-78
2023/06/18 09:36:46;;;;;;;6.57;5.38;;;;;;;22.97;46.71;101202.94;5043096;28;20052;-78
2023/06/18 09:39:25;;;;;;;8.23;5.25;;;;;;;22.99;47.43;101201.03;5038798;28;20369;-79
2023/06/18 09:41:52;;;;;;;7.15;5.07;;;;;;;23.03;47.87;101201.66;5043184;28;20040;-79
2023/06/18 09:44:19;;;;;;;6.65;5.20;;;;;;;23.05;47.56;101189.13;5039081;28;20043;-79
2023/06/18 09:46:50;;;;;;;6.88;5.30;;;;;;;23.05;48.11;101183.81;5041431;28;20036;-79
2023/06/18 09:49:17;;;;;;;5.50;4.90;;;;;;;23.06;48.29;101188.16;5040444;28;20048;-79
2023/06/18 09:51:44;;;;;;;7.78;5.30;;;;;;;23.10;47.54;101191.44;5039962;28;20028;-79
2023/06/18 09:54:10;;;;;;;7.65;5.63;;;;;;;23.11;47.89;101191.31;5040694;28;20021;-79
2023/06/18 09:56:38;;;;;;;9.40;5.47;;;;;;;23.13;47.96;101194.72;5041820;28;20136;-79
2023/06/18 09:59:03;;;;;;;7.13;5.57;;;;;;;23.14;47.73;101195.56;5049682;28;20032;-80
2023/06/18 10:01:44;;;;;;;7.10;5.45;;;;;;;23.14;48.49;101199.06;5048605;28;20032;-79
2023/06/18 10:04:10;;;;;;;5.95;5.18;;;;;;;23.13;47.86;101197.38;5046533;28;20369;-80
2023/06/18 10:06:37;;;;;;;9.93;5.25;;;;;;;23.13;48.01;101194.72;5044737;28;20032;-80
2023/06/18 10:09:05;;;;;;;7.30;5.25;;;;;;;23.15;48.64;101206.06;5043515;28;20082;-79
2023/06/18 10:11:32;;;;;;;8.63;5.60;;;;;;;23.17;48.73;101204.16;5042224;28;20036;-80
2023/06/18 10:14:02;;;;;;;6.63;5.75;;;;;;;23.17;49.14;101204.16;5043722;28;20104;-79
2023/06/18 10:16:29;;;;;;;8.13;5.72;;;;;;;23.19;49.45;101202.22;5046771;28;20020;-79
2023/06/18 10:19:05;;;;;;;9.05;5.68;;;;;;;23.18;49.79;101200.53;5023876;28;21085;-79
2023/06/18 10:21:34;;;;;;;7.45;6.28;;;;;;;23.18;51.22;101195.22;5026473;28;20554;-79
2023/06/18 10:24:13;;;;;;;8.82;6.20;;;;;;;23.18;50.96;101192.56;5045230;28;20032;-79
2023/06/18 10:26:40;;;;;;;7.35;5.85;;;;;;;23.15;56.40;101186.63;5046694;28;20029;-80
2023/06/18 10:29:06;;;;;;;9.15;6.00;;;;;;;23.11;59.26;101180.69;5044623;28;20027;-79
2023/06/18 10:31:32;;;;;;;6.97;5.93;;;;;;;23.05;53.29;101178.53;5028628;28;20037;-79
2023/06/18 10:33:58;;;;;;;7.25;6.05;;;;;;;23.02;51.15;101168.97;5044501;28;20028;-79
2023/06/18 10:36:25;;;;;;;7.72;6.22;;;;;;;23.02;55.26;101171.63;5041384;28;20025;-79
2023/06/18 10:38:51;;;;;;;7.72;5.88;;;;;;;23.02;56.93;101168.13;5029184;28;20020;-79
2023/06/18 10:41:20;;;;;;;7.68;6.38;;;;;;;22.96;54.58;101157.94;5028934;28;20025;-79
2023/06/18 10:43:52;;;;;;;8.43;6.25;;;;;;;22.94;58.15;101157.22;5045563;28;20030;-79
2023/06/18 10:46:19;;;;;;;10.25;6.63;;;;;;;22.91;52.30;101160.09;5039946;28;20036;-80
2023/06/18 10:49:20;;;;;;;8.75;6.75;;;;;;;22.94;52.79;101162.53;5043786;28;20254;-79
2023/06/18 10:51:57;;;;;;;6.90;6.20;;;;;;;22.97;55.21;101157.81;5044720;28;20381;-79
2023/06/18 10:54:24;;;;;;;6.78;6.07;;;;;;;23.00;56.19;101143.50;5040286;28;20029;-79
2023/06/18 10:56:58;;;;;;;8.45;6.25;;;;;;;23.04;55.48;101140.50;5048967;28;20025;-79
2023/06/18 10:59:40;;;;;;;8.38;6.40;;;;;;;23.12;57.28;101144.41;5047133;28;20334;-79
2023/06/18 11:02:06;;;;;;;7.40;6.38;;;;;;;23.20;57.89;101144.66;5040808;28;20036;-80
2023/06/18 11:04:33;;;;;;;6.75;5.97;;;;;;;23.25;55.89;101141.69;5034222;28;20035;-80
2023/06/18 11:07:17;;;;;;;7.00;6.20;;;;;;;23.28;55.13;101141.47;5047193;28;20068;-80
2023/06/18 11:09:47;;;;;;;9.50;6.18;;;;;;;23.33;58.87;101136.69;5049581;28;20032;-79
2023/06/18 11:12:24;;;;;;;7.50;6.53;;;;;;;23.39;55.17;101128.25;5050996;28;20025;-80
2023/06/18 11:15:19;;;;;;;8.18;7.22;;;;;;;23.49;55.31;101129.25;5051687;28;20076;-80
2023/06/18 11:17:48;;;;;;;8.32;7.32;;;;;;;23.57;53.84;101135.78;5053289;28;20076;-79